Eau Claire, South Carolina
Current Conditions -  °F | °C
As of 4:53 PM on Tuesday 25 Nov 2014 (Local Time) from KCUB Reporting Station
Haze Haze  
Wind Chill: 59°   Ceiling: 10000
Heat Index: 59°   Visibility: 6mi
Dew Point: 56°   Wind: 0mph
Humidity: 90%   Direction: NA
Pressure: 30.04"   Gusts: NA
Location:  34.1179°N, 81.0612°W
Report Text: KCUB 252153Z AUTO 00000KT 6SM BR BKN100 BKN120 15/13 A3004 RMK AO2 SLP169 T01500133
Loading
Personal Weather Stations






























Interactive Weather Map New forecast layout! Learn more

10-Day Weather Forecast

Advertisements
Track Severe Weather on mobile